sensor_id;sensor_type;location;lat;lon;timestamp;P1;durP1;ratioP1;P2;durP2;ratioP2
12348;SDS011;5974;42.710;27.258;2024-01-30T00:01:09;12.57;;;8.73;;
12348;SDS011;5974;42.710;27.258;2024-01-30T00:03:36;10.13;;;7.47;;
12348;SDS011;5974;42.710;27.258;2024-01-30T00:06:03;12.93;;;8.57;;
12348;SDS011;5974;42.710;27.258;2024-01-30T00:08:30;11.90;;;7.77;;
12348;SDS011;5974;42.710;27.258;2024-01-30T00:10:58;9.90;;;7.33;;
12348;SDS011;5974;42.710;27.258;2024-01-30T00:13:25;11.43;;;7.53;;
12348;SDS011;5974;42.710;27.258;2024-01-30T00:15:52;11.10;;;8.20;;
12348;SDS011;5974;42.710;27.258;2024-01-30T00:18:19;12.67;;;7.87;;
12348;SDS011;5974;42.710;27.258;2024-01-30T00:20:46;11.70;;;8.20;;
12348;SDS011;5974;42.710;27.258;2024-01-30T00:23:13;10.27;;;7.73;;
12348;SDS011;5974;42.710;27.258;2024-01-30T00:25:40;11.03;;;7.93;;
12348;SDS011;5974;42.710;27.258;2024-01-30T00:28:08;11.70;;;7.83;;
12348;SDS011;5974;42.710;27.258;2024-01-30T00:30:34;9.97;;;7.67;;
12348;SDS011;5974;42.710;27.258;2024-01-30T00:33:01;12.50;;;7.90;;
12348;SDS011;5974;42.710;27.258;2024-01-30T00:35:28;10.90;;;8.40;;
12348;SDS011;5974;42.710;27.258;2024-01-30T00:37:55;10.83;;;8.07;;
12348;SDS011;5974;42.710;27.258;2024-01-30T00:40:22;12.40;;;7.50;;
12348;SDS011;5974;42.710;27.258;2024-01-30T00:42:48;11.77;;;7.90;;
12348;SDS011;5974;42.710;27.258;2024-01-30T00:45:16;12.47;;;8.17;;
12348;SDS011;5974;42.710;27.258;2024-01-30T00:47:43;11.23;;;8.07;;
12348;SDS011;5974;42.710;27.258;2024-01-30T00:50:11;10.33;;;7.47;;
12348;SDS011;5974;42.710;27.258;2024-01-30T00:52:37;11.90;;;7.63;;
12348;SDS011;5974;42.710;27.258;2024-01-30T00:55:06;11.10;;;8.00;;
12348;SDS011;5974;42.710;27.258;2024-01-30T00:57:33;12.47;;;8.07;;
12348;SDS011;5974;42.710;27.258;2024-01-30T01:00:00;11.53;;;8.17;;
12348;SDS011;5974;42.710;27.258;2024-01-30T01:02:28;12.13;;;7.87;;
12348;SDS011;5974;42.710;27.258;2024-01-30T01:04:55;11.70;;;7.77;;
12348;SDS011;5974;42.710;27.258;2024-01-30T01:07:21;13.70;;;8.03;;
12348;SDS011;5974;42.710;27.258;2024-01-30T01:09:48;11.17;;;8.17;;
12348;SDS011;5974;42.710;27.258;2024-01-30T01:12:15;11.93;;;8.10;;
12348;SDS011;5974;42.710;27.258;2024-01-30T01:14:42;10.73;;;7.53;;
12348;SDS011;5974;42.710;27.258;2024-01-30T01:17:08;10.87;;;7.13;;
12348;SDS011;5974;42.710;27.258;2024-01-30T01:19:35;9.87;;;7.13;;
12348;SDS011;5974;42.710;27.258;2024-01-30T01:22:02;10.27;;;7.73;;
12348;SDS011;5974;42.710;27.258;2024-01-30T01:24:30;8.97;;;6.60;;
12348;SDS011;5974;42.710;27.258;2024-01-30T01:26:57;9.20;;;6.77;;
12348;SDS011;5974;42.710;27.258;2024-01-30T01:29:24;9.13;;;6.67;;
12348;SDS011;5974;42.710;27.258;2024-01-30T01:31:53;9.90;;;6.87;;
12348;SDS011;5974;42.710;27.258;2024-01-30T01:34:21;9.27;;;7.20;;
12348;SDS011;5974;42.710;27.258;2024-01-30T01:36:50;9.60;;;7.07;;
12348;SDS011;5974;42.710;27.258;2024-01-30T01:39:20;10.13;;;6.77;;
12348;SDS011;5974;42.710;27.258;2024-01-30T01:41:48;11.50;;;6.83;;
12348;SDS011;5974;42.710;27.258;2024-01-30T01:44:15;9.77;;;6.83;;
12348;SDS011;5974;42.710;27.258;2024-01-30T01:46:42;8.63;;;6.73;;
12348;SDS011;5974;42.710;27.258;2024-01-30T01:49:09;14.07;;;7.63;;
12348;SDS011;5974;42.710;27.258;2024-01-30T01:51:36;9.90;;;7.60;;
12348;SDS011;5974;42.710;27.258;2024-01-30T01:54:07;10.63;;;7.20;;
12348;SDS011;5974;42.710;27.258;2024-01-30T01:56:35;11.17;;;7.40;;
12348;SDS011;5974;42.710;27.258;2024-01-30T01:59:04;10.83;;;7.63;;
12348;SDS011;5974;42.710;27.258;2024-01-30T02:01:32;9.53;;;7.13;;
12348;SDS011;5974;42.710;27.258;2024-01-30T02:03:59;10.53;;;7.53;;
12348;SDS011;5974;42.710;27.258;2024-01-30T02:06:26;12.60;;;8.37;;
12348;SDS011;5974;42.710;27.258;2024-01-30T02:08:53;11.17;;;7.73;;
12348;SDS011;5974;42.710;27.258;2024-01-30T02:11:22;13.70;;;8.57;;
12348;SDS011;5974;42.710;27.258;2024-01-30T02:13:49;12.63;;;8.03;;
12348;SDS011;5974;42.710;27.258;2024-01-30T02:16:16;9.80;;;7.90;;
12348;SDS011;5974;42.710;27.258;2024-01-30T02:18:43;13.07;;;8.00;;
12348;SDS011;5974;42.710;27.258;2024-01-30T02:21:13;10.03;;;8.10;;
12348;SDS011;5974;42.710;27.258;2024-01-30T02:23:41;11.50;;;7.90;;
12348;SDS011;5974;42.710;27.258;2024-01-30T02:26:09;10.07;;;7.50;;
12348;SDS011;5974;42.710;27.258;2024-01-30T02:28:36;10.20;;;7.73;;
12348;SDS011;5974;42.710;27.258;2024-01-30T02:31:03;9.93;;;7.73;;
12348;SDS011;5974;42.710;27.258;2024-01-30T02:33:30;11.27;;;8.33;;
12348;SDS011;5974;42.710;27.258;2024-01-30T02:35:57;10.83;;;8.10;;
12348;SDS011;5974;42.710;27.258;2024-01-30T02:38:25;11.43;;;8.90;;
12348;SDS011;5974;42.710;27.258;2024-01-30T02:40:53;12.00;;;8.10;;
12348;SDS011;5974;42.710;27.258;2024-01-30T02:43:20;11.63;;;8.30;;
12348;SDS011;5974;42.710;27.258;2024-01-30T02:45:47;11.27;;;8.33;;
12348;SDS011;5974;42.710;27.258;2024-01-30T02:48:14;11.07;;;7.60;;
12348;SDS011;5974;42.710;27.258;2024-01-30T02:50:41;10.13;;;7.90;;
12348;SDS011;5974;42.710;27.258;2024-01-30T02:53:07;12.30;;;8.23;;
12348;SDS011;5974;42.710;27.258;2024-01-30T02:55:36;12.37;;;8.70;;
12348;SDS011;5974;42.710;27.258;2024-01-30T02:58:02;10.07;;;7.90;;
12348;SDS011;5974;42.710;27.258;2024-01-30T03:00:29;14.47;;;7.90;;
12348;SDS011;5974;42.710;27.258;2024-01-30T03:02:56;11.53;;;8.27;;
12348;SDS011;5974;42.710;27.258;2024-01-30T03:05:23;11.90;;;8.43;;
12348;SDS011;5974;42.710;27.258;2024-01-30T03:07:50;12.13;;;7.83;;
12348;SDS011;5974;42.710;27.258;2024-01-30T03:10:17;11.97;;;8.70;;
12348;SDS011;5974;42.710;27.258;2024-01-30T03:12:45;10.43;;;7.63;;
12348;SDS011;5974;42.710;27.258;2024-01-30T03:15:12;9.70;;;7.47;;
12348;SDS011;5974;42.710;27.258;2024-01-30T03:17:38;11.03;;;7.70;;
12348;SDS011;5974;42.710;27.258;2024-01-30T03:20:05;11.70;;;8.20;;
12348;SDS011;5974;42.710;27.258;2024-01-30T03:22:33;10.17;;;7.73;;
12348;SDS011;5974;42.710;27.258;2024-01-30T03:24:59;12.67;;;8.60;;
12348;SDS011;5974;42.710;27.258;2024-01-30T03:27:26;10.80;;;8.37;;
12348;SDS011;5974;42.710;27.258;2024-01-30T03:29:55;11.60;;;8.20;;
12348;SDS011;5974;42.710;27.258;2024-01-30T03:32:22;9.87;;;8.37;;
12348;SDS011;5974;42.710;27.258;2024-01-30T03:34:47;11.00;;;8.00;;
12348;SDS011;5974;42.710;27.258;2024-01-30T03:37:14;11.33;;;8.43;;
12348;SDS011;5974;42.710;27.258;2024-01-30T03:39:41;12.13;;;8.47;;
12348;SDS011;5974;42.710;27.258;2024-01-30T03:42:08;13.13;;;8.47;;
12348;SDS011;5974;42.710;27.258;2024-01-30T03:44:34;11.90;;;8.37;;
12348;SDS011;5974;42.710;27.258;2024-01-30T03:47:03;11.70;;;7.93;;
12348;SDS011;5974;42.710;27.258;2024-01-30T03:49:29;10.97;;;7.70;;
12348;SDS011;5974;42.710;27.258;2024-01-30T03:51:56;12.43;;;8.60;;
12348;SDS011;5974;42.710;27.258;2024-01-30T03:54:23;11.93;;;8.10;;
12348;SDS011;5974;42.710;27.258;2024-01-30T03:56:49;10.43;;;7.63;;
12348;SDS011;5974;42.710;27.258;2024-01-30T03:59:16;11.00;;;7.90;;
12348;SDS011;5974;42.710;27.258;2024-01-30T04:01:47;10.17;;;8.33;;
12348;SDS011;5974;42.710;27.258;2024-01-30T04:04:15;11.00;;;8.00;;
12348;SDS011;5974;42.710;27.258;2024-01-30T04:06:42;13.77;;;8.63;;
12348;SDS011;5974;42.710;27.258;2024-01-30T04:09:08;13.13;;;7.83;;
12348;SDS011;5974;42.710;27.258;2024-01-30T04:11:36;11.53;;;7.77;;
12348;SDS011;5974;42.710;27.258;2024-01-30T04:14:03;9.93;;;6.47;;
12348;SDS011;5974;42.710;27.258;2024-01-30T04:16:29;11.63;;;8.53;;
12348;SDS011;5974;42.710;27.258;2024-01-30T04:18:56;12.40;;;8.03;;
12348;SDS011;5974;42.710;27.258;2024-01-30T04:21:26;11.23;;;8.03;;
12348;SDS011;5974;42.710;27.258;2024-01-30T04:23:52;9.53;;;7.20;;
12348;SDS011;5974;42.710;27.258;2024-01-30T04:26:19;9.17;;;7.27;;
12348;SDS011;5974;42.710;27.258;2024-01-30T04:28:46;11.33;;;7.70;;
12348;SDS011;5974;42.710;27.258;2024-01-30T04:31:13;9.70;;;7.53;;
12348;SDS011;5974;42.710;27.258;2024-01-30T04:33:39;11.40;;;8.07;;
12348;SDS011;5974;42.710;27.258;2024-01-30T04:36:07;13.70;;;7.77;;
12348;SDS011;5974;42.710;27.258;2024-01-30T04:38:37;11.33;;;7.87;;
12348;SDS011;5974;42.710;27.258;2024-01-30T04:41:04;9.90;;;7.43;;
12348;SDS011;5974;42.710;27.258;2024-01-30T04:43:31;9.17;;;7.40;;
12348;SDS011;5974;42.710;27.258;2024-01-30T04:45:57;10.17;;;7.40;;
12348;SDS011;5974;42.710;27.258;2024-01-30T04:48:24;8.60;;;6.93;;
12348;SDS011;5974;42.710;27.258;2024-01-30T04:50:51;9.90;;;7.43;;
12348;SDS011;5974;42.710;27.258;2024-01-30T04:53:18;12.43;;;7.43;;
12348;SDS011;5974;42.710;27.258;2024-01-30T04:55:46;10.20;;;7.40;;
12348;SDS011;5974;42.710;27.258;2024-01-30T04:58:12;9.77;;;7.00;;
12348;SDS011;5974;42.710;27.258;2024-01-30T05:00:39;10.10;;;6.87;;
12348;SDS011;5974;42.710;27.258;2024-01-30T05:03:06;9.67;;;7.30;;
12348;SDS011;5974;42.710;27.258;2024-01-30T05:05:33;9.47;;;7.20;;
12348;SDS011;5974;42.710;27.258;2024-01-30T05:07:59;8.50;;;6.47;;
12348;SDS011;5974;42.710;27.258;2024-01-30T05:10:26;10.77;;;7.03;;
12348;SDS011;5974;42.710;27.258;2024-01-30T05:12:55;9.23;;;6.90;;
12348;SDS011;5974;42.710;27.258;2024-01-30T05:15:21;10.87;;;7.40;;
12348;SDS011;5974;42.710;27.258;2024-01-30T05:17:48;9.33;;;7.57;;
12348;SDS011;5974;42.710;27.258;2024-01-30T05:20:16;12.83;;;7.03;;
12348;SDS011;5974;42.710;27.258;2024-01-30T05:22:43;9.70;;;7.30;;
12348;SDS011;5974;42.710;27.258;2024-01-30T05:25:11;9.23;;;6.60;;
12348;SDS011;5974;42.710;27.258;2024-01-30T05:27:38;9.50;;;7.07;;
12348;SDS011;5974;42.710;27.258;2024-01-30T05:30:07;10.03;;;7.13;;
12348;SDS011;5974;42.710;27.258;2024-01-30T05:32:34;10.97;;;7.67;;
12348;SDS011;5974;42.710;27.258;2024-01-30T05:35:01;10.83;;;7.83;;
12348;SDS011;5974;42.710;27.258;2024-01-30T05:37:28;10.77;;;7.70;;
12348;SDS011;5974;42.710;27.258;2024-01-30T05:39:54;10.70;;;7.30;;
12348;SDS011;5974;42.710;27.258;2024-01-30T05:42:21;9.73;;;6.70;;
12348;SDS011;5974;42.710;27.258;2024-01-30T05:44:48;10.67;;;7.30;;
12348;SDS011;5974;42.710;27.258;2024-01-30T05:47:16;10.23;;;7.60;;
12348;SDS011;5974;42.710;27.258;2024-01-30T05:49:42;10.20;;;6.67;;
12348;SDS011;5974;42.710;27.258;2024-01-30T05:52:09;11.13;;;7.27;;
12348;SDS011;5974;42.710;27.258;2024-01-30T05:54:36;10.40;;;7.73;;
12348;SDS011;5974;42.710;27.258;2024-01-30T05:57:03;14.50;;;10.03;;
12348;SDS011;5974;42.710;27.258;2024-01-30T05:59:30;10.00;;;7.17;;
12348;SDS011;5974;42.710;27.258;2024-01-30T06:01:56;14.07;;;8.70;;
12348;SDS011;5974;42.710;27.258;2024-01-30T06:04:24;11.37;;;7.77;;
12348;SDS011;5974;42.710;27.258;2024-01-30T06:06:51;10.90;;;6.97;;
12348;SDS011;5974;42.710;27.258;2024-01-30T06:09:18;8.30;;;6.33;;
12348;SDS011;5974;42.710;27.258;2024-01-30T06:11:45;9.50;;;7.40;;
12348;SDS011;5974;42.710;27.258;2024-01-30T06:14:11;9.80;;;7.13;;
12348;SDS011;5974;42.710;27.258;2024-01-30T06:16:38;12.63;;;7.90;;
12348;SDS011;5974;42.710;27.258;2024-01-30T06:19:05;9.70;;;7.50;;
12348;SDS011;5974;42.710;27.258;2024-01-30T06:21:33;10.93;;;6.97;;
12348;SDS011;5974;42.710;27.258;2024-01-30T06:24:01;10.80;;;7.53;;
12348;SDS011;5974;42.710;27.258;2024-01-30T06:26:28;9.80;;;7.00;;
12348;SDS011;5974;42.710;27.258;2024-01-30T06:28:55;12.27;;;7.80;;
12348;SDS011;5974;42.710;27.258;2024-01-30T06:31:22;10.80;;;7.13;;
12348;SDS011;5974;42.710;27.258;2024-01-30T06:33:48;12.20;;;7.23;;
12348;SDS011;5974;42.710;27.258;2024-01-30T06:36:15;8.43;;;6.43;;
12348;SDS011;5974;42.710;27.258;2024-01-30T06:38:43;10.03;;;7.00;;
12348;SDS011;5974;42.710;27.258;2024-01-30T06:41:10;11.53;;;7.17;;
12348;SDS011;5974;42.710;27.258;2024-01-30T06:43:37;12.63;;;8.00;;
12348;SDS011;5974;42.710;27.258;2024-01-30T06:46:04;10.17;;;7.03;;
12348;SDS011;5974;42.710;27.258;2024-01-30T06:48:30;9.20;;;6.57;;
12348;SDS011;5974;42.710;27.258;2024-01-30T06:50:57;12.00;;;7.67;;
12348;SDS011;5974;42.710;27.258;2024-01-30T06:53:24;10.93;;;7.90;;
12348;SDS011;5974;42.710;27.258;2024-01-30T06:55:52;10.00;;;6.97;;
12348;SDS011;5974;42.710;27.258;2024-01-30T06:58:19;11.03;;;7.60;;
12348;SDS011;5974;42.710;27.258;2024-01-30T07:00:46;10.70;;;7.47;;
12348;SDS011;5974;42.710;27.258;2024-01-30T07:03:13;9.57;;;6.40;;
12348;SDS011;5974;42.710;27.258;2024-01-30T07:05:39;10.20;;;7.10;;
12348;SDS011;5974;42.710;27.258;2024-01-30T07:08:06;11.70;;;7.47;;
12348;SDS011;5974;42.710;27.258;2024-01-30T07:10:33;10.13;;;6.93;;
12348;SDS011;5974;42.710;27.258;2024-01-30T07:13:01;9.67;;;6.80;;
12348;SDS011;5974;42.710;27.258;2024-01-30T07:15:29;13.00;;;6.70;;
12348;SDS011;5974;42.710;27.258;2024-01-30T07:17:56;9.60;;;6.97;;
12348;SDS011;5974;42.710;27.258;2024-01-30T07:20:22;10.80;;;6.53;;
12348;SDS011;5974;42.710;27.258;2024-01-30T07:22:49;8.90;;;6.53;;
12348;SDS011;5974;42.710;27.258;2024-01-30T07:25:16;9.10;;;6.80;;
12348;SDS011;5974;42.710;27.258;2024-01-30T07:27:43;10.23;;;6.37;;
12348;SDS011;5974;42.710;27.258;2024-01-30T07:30:11;8.37;;;6.47;;
12348;SDS011;5974;42.710;27.258;2024-01-30T07:32:38;9.90;;;6.80;;
12348;SDS011;5974;42.710;27.258;2024-01-30T07:35:05;8.90;;;6.63;;
12348;SDS011;5974;42.710;27.258;2024-01-30T07:37:32;14.90;;;9.57;;
12348;SDS011;5974;42.710;27.258;2024-01-30T07:39:59;14.70;;;11.70;;
12348;SDS011;5974;42.710;27.258;2024-01-30T07:42:26;17.30;;;11.40;;
12348;SDS011;5974;42.710;27.258;2024-01-30T07:44:52;7.27;;;5.80;;
12348;SDS011;5974;42.710;27.258;2024-01-30T07:47:20;10.80;;;7.53;;
12348;SDS011;5974;42.710;27.258;2024-01-30T07:49:47;9.70;;;6.40;;
12348;SDS011;5974;42.710;27.258;2024-01-30T07:52:14;9.50;;;5.70;;
12348;SDS011;5974;42.710;27.258;2024-01-30T07:54:47;9.37;;;6.20;;
12348;SDS011;5974;42.710;27.258;2024-01-30T07:57:14;8.87;;;5.80;;
12348;SDS011;5974;42.710;27.258;2024-01-30T07:59:41;13.20;;;6.27;;
12348;SDS011;5974;42.710;27.258;2024-01-30T08:02:09;7.23;;;6.10;;
12348;SDS011;5974;42.710;27.258;2024-01-30T08:04:38;7.30;;;5.67;;
12348;SDS011;5974;42.710;27.258;2024-01-30T08:07:05;8.03;;;5.67;;
12348;SDS011;5974;42.710;27.258;2024-01-30T08:09:32;8.67;;;6.23;;
12348;SDS011;5974;42.710;27.258;2024-01-30T08:11:58;8.00;;;5.90;;
12348;SDS011;5974;42.710;27.258;2024-01-30T08:14:25;8.33;;;5.80;;
12348;SDS011;5974;42.710;27.258;2024-01-30T08:16:52;9.70;;;6.30;;
12348;SDS011;5974;42.710;27.258;2024-01-30T08:19:18;8.10;;;5.70;;
12348;SDS011;5974;42.710;27.258;2024-01-30T08:21:46;8.83;;;6.03;;
12348;SDS011;5974;42.710;27.258;2024-01-30T08:24:13;8.87;;;6.47;;
12348;SDS011;5974;42.710;27.258;2024-01-30T08:26:40;8.67;;;6.10;;
12348;SDS011;5974;42.710;27.258;2024-01-30T08:29:07;9.63;;;6.40;;
12348;SDS011;5974;42.710;27.258;2024-01-30T08:31:34;11.07;;;6.73;;
12348;SDS011;5974;42.710;27.258;2024-01-30T08:34:00;9.90;;;7.33;;
12348;SDS011;5974;42.710;27.258;2024-01-30T08:36:27;8.50;;;6.57;;
12348;SDS011;5974;42.710;27.258;2024-01-30T08:38:55;7.93;;;6.27;;
12348;SDS011;5974;42.710;27.258;2024-01-30T08:41:22;9.27;;;6.40;;
12348;SDS011;5974;42.710;27.258;2024-01-30T08:43:49;9.40;;;6.53;;
12348;SDS011;5974;42.710;27.258;2024-01-30T08:46:17;7.33;;;5.70;;
12348;SDS011;5974;42.710;27.258;2024-01-30T08:48:44;9.50;;;6.53;;
12348;SDS011;5974;42.710;27.258;2024-01-30T08:51:10;7.87;;;6.73;;
12348;SDS011;5974;42.710;27.258;2024-01-30T08:53:37;7.57;;;6.17;;
12348;SDS011;5974;42.710;27.258;2024-01-30T08:56:06;7.63;;;5.70;;
12348;SDS011;5974;42.710;27.258;2024-01-30T08:58:33;7.33;;;5.77;;
12348;SDS011;5974;42.710;27.258;2024-01-30T09:01:00;6.83;;;6.03;;
12348;SDS011;5974;42.710;27.258;2024-01-30T09:03:28;9.57;;;6.83;;
12348;SDS011;5974;42.710;27.258;2024-01-30T09:05:55;9.57;;;6.40;;
12348;SDS011;5974;42.710;27.258;2024-01-30T09:08:22;10.43;;;7.00;;
12348;SDS011;5974;42.710;27.258;2024-01-30T09:10:49;13.17;;;6.57;;
12348;SDS011;5974;42.710;27.258;2024-01-30T09:13:17;10.30;;;6.87;;
12348;SDS011;5974;42.710;27.258;2024-01-30T09:15:44;9.03;;;6.10;;
12348;SDS011;5974;42.710;27.258;2024-01-30T09:18:11;7.67;;;6.17;;
12348;SDS011;5974;42.710;27.258;2024-01-30T09:20:37;7.60;;;6.03;;
12348;SDS011;5974;42.710;27.258;2024-01-30T09:23:04;10.77;;;6.47;;
12348;SDS011;5974;42.710;27.258;2024-01-30T09:25:31;7.20;;;5.83;;
12348;SDS011;5974;42.710;27.258;2024-01-30T09:27:59;7.80;;;6.47;;
12348;SDS011;5974;42.710;27.258;2024-01-30T09:30:27;9.37;;;6.20;;
12348;SDS011;5974;42.710;27.258;2024-01-30T09:32:53;7.83;;;6.00;;
12348;SDS011;5974;42.710;27.258;2024-01-30T09:35:20;9.00;;;5.77;;
12348;SDS011;5974;42.710;27.258;2024-01-30T09:37:47;6.93;;;5.47;;
12348;SDS011;5974;42.710;27.258;2024-01-30T09:40:14;9.80;;;6.17;;
12348;SDS011;5974;42.710;27.258;2024-01-30T09:42:44;7.50;;;5.90;;
12348;SDS011;5974;42.710;27.258;2024-01-30T09:45:13;10.07;;;6.30;;
12348;SDS011;5974;42.710;27.258;2024-01-30T09:47:42;8.53;;;6.17;;
12348;SDS011;5974;42.710;27.258;2024-01-30T09:50:11;7.40;;;5.70;;
12348;SDS011;5974;42.710;27.258;2024-01-30T09:52:39;8.57;;;6.37;;
12348;SDS011;5974;42.710;27.258;2024-01-30T09:55:06;7.50;;;5.37;;
12348;SDS011;5974;42.710;27.258;2024-01-30T09:57:33;7.80;;;5.07;;
12348;SDS011;5974;42.710;27.258;2024-01-30T10:00:00;8.43;;;6.13;;
12348;SDS011;5974;42.710;27.258;2024-01-30T10:02:28;11.17;;;6.70;;
12348;SDS011;5974;42.710;27.258;2024-01-30T10:04:56;10.87;;;6.77;;
12348;SDS011;5974;42.710;27.258;2024-01-30T10:07:22;10.47;;;5.73;;
12348;SDS011;5974;42.710;27.258;2024-01-30T10:09:49;7.57;;;5.90;;
12348;SDS011;5974;42.710;27.258;2024-01-30T10:12:16;10.03;;;5.73;;
12348;SDS011;5974;42.710;27.258;2024-01-30T10:14:43;13.40;;;6.30;;
12348;SDS011;5974;42.710;27.258;2024-01-30T10:17:10;9.00;;;6.17;;
12348;SDS011;5974;42.710;27.258;2024-01-30T10:19:37;7.27;;;5.60;;
12348;SDS011;5974;42.710;27.258;2024-01-30T10:22:07;7.87;;;5.43;;
12348;SDS011;5974;42.710;27.258;2024-01-30T10:24:34;7.60;;;5.83;;
12348;SDS011;5974;42.710;27.258;2024-01-30T10:27:01;7.67;;;5.67;;
12348;SDS011;5974;42.710;27.258;2024-01-30T10:29:28;7.90;;;5.93;;
12348;SDS011;5974;42.710;27.258;2024-01-30T10:31:58;6.60;;;5.30;;
12348;SDS011;5974;42.710;27.258;2024-01-30T10:34:25;8.97;;;5.87;;
12348;SDS011;5974;42.710;27.258;2024-01-30T10:36:55;7.33;;;5.70;;
12348;SDS011;5974;42.710;27.258;2024-01-30T10:39:29;10.17;;;6.27;;
12348;SDS011;5974;42.710;27.258;2024-01-30T10:41:56;8.57;;;5.87;;
12348;SDS011;5974;42.710;27.258;2024-01-30T10:44:30;9.83;;;5.40;;
12348;SDS011;5974;42.710;27.258;2024-01-30T10:47:05;7.00;;;5.30;;
12348;SDS011;5974;42.710;27.258;2024-01-30T10:49:37;6.43;;;5.33;;
12348;SDS011;5974;42.710;27.258;2024-01-30T10:52:05;8.03;;;5.30;;
12348;SDS011;5974;42.710;27.258;2024-01-30T10:54:35;6.23;;;5.00;;
12348;SDS011;5974;42.710;27.258;2024-01-30T10:57:04;8.03;;;5.50;;
12348;SDS011;5974;42.710;27.258;2024-01-30T10:59:31;6.23;;;5.50;;
12348;SDS011;5974;42.710;27.258;2024-01-30T11:01:59;6.70;;;4.97;;
12348;SDS011;5974;42.710;27.258;2024-01-30T11:04:27;8.50;;;5.33;;
12348;SDS011;5974;42.710;27.258;2024-01-30T11:07:01;9.00;;;5.77;;
12348;SDS011;5974;42.710;27.258;2024-01-30T11:09:29;8.47;;;5.63;;
12348;SDS011;5974;42.710;27.258;2024-01-30T11:11:58;7.57;;;5.13;;
12348;SDS011;5974;42.710;27.258;2024-01-30T11:14:26;6.33;;;5.03;;
12348;SDS011;5974;42.710;27.258;2024-01-30T11:16:56;6.93;;;5.53;;
12348;SDS011;5974;42.710;27.258;2024-01-30T11:19:24;9.03;;;5.00;;
12348;SDS011;5974;42.710;27.258;2024-01-30T11:21:52;5.60;;;5.03;;
12348;SDS011;5974;42.710;27.258;2024-01-30T11:24:19;9.37;;;5.87;;
12348;SDS011;5974;42.710;27.258;2024-01-30T11:26:48;9.13;;;5.30;;
12348;SDS011;5974;42.710;27.258;2024-01-30T11:29:18;7.53;;;5.77;;
12348;SDS011;5974;42.710;27.258;2024-01-30T11:31:53;7.40;;;5.27;;
12348;SDS011;5974;42.710;27.258;2024-01-30T11:34:21;8.80;;;5.53;;
12348;SDS011;5974;42.710;27.258;2024-01-30T11:36:51;8.00;;;5.57;;
12348;SDS011;5974;42.710;27.258;2024-01-30T11:39:20;6.53;;;4.60;;
12348;SDS011;5974;42.710;27.258;2024-01-30T11:41:47;6.03;;;4.87;;
12348;SDS011;5974;42.710;27.258;2024-01-30T11:44:19;7.00;;;5.20;;
12348;SDS011;5974;42.710;27.258;2024-01-30T11:46:47;6.40;;;5.00;;
12348;SDS011;5974;42.710;27.258;2024-01-30T11:49:14;8.00;;;5.60;;
12348;SDS011;5974;42.710;27.258;2024-01-30T11:51:42;7.73;;;5.23;;
12348;SDS011;5974;42.710;27.258;2024-01-30T11:54:09;6.30;;;4.97;;
12348;SDS011;5974;42.710;27.258;2024-01-30T11:56:36;6.77;;;5.10;;
12348;SDS011;5974;42.710;27.258;2024-01-30T11:59:03;8.30;;;5.37;;
12348;SDS011;5974;42.710;27.258;2024-01-30T12:01:31;7.90;;;5.27;;
12348;SDS011;5974;42.710;27.258;2024-01-30T12:03:59;6.63;;;5.50;;
12348;SDS011;5974;42.710;27.258;2024-01-30T12:06:26;5.30;;;4.73;;
12348;SDS011;5974;42.710;27.258;2024-01-30T12:08:57;7.90;;;5.03;;
12348;SDS011;5974;42.710;27.258;2024-01-30T12:11:24;6.47;;;5.37;;
12348;SDS011;5974;42.710;27.258;2024-01-30T12:13:51;6.93;;;4.83;;
12348;SDS011;5974;42.710;27.258;2024-01-30T12:16:19;6.70;;;5.13;;
12348;SDS011;5974;42.710;27.258;2024-01-30T12:18:48;6.63;;;5.20;;
12348;SDS011;5974;42.710;27.258;2024-01-30T12:21:16;7.00;;;4.90;;
12348;SDS011;5974;42.710;27.258;2024-01-30T12:23:43;7.00;;;4.83;;
12348;SDS011;5974;42.710;27.258;2024-01-30T12:26:11;5.97;;;4.57;;
12348;SDS011;5974;42.710;27.258;2024-01-30T12:28:47;6.43;;;4.77;;
12348;SDS011;5974;42.710;27.258;2024-01-30T12:31:14;7.10;;;4.53;;
12348;SDS011;5974;42.710;27.258;2024-01-30T12:33:41;7.23;;;4.60;;
12348;SDS011;5974;42.710;27.258;2024-01-30T12:36:09;7.60;;;4.57;;
12348;SDS011;5974;42.710;27.258;2024-01-30T12:38:38;6.00;;;5.13;;
12348;SDS011;5974;42.710;27.258;2024-01-30T12:41:06;8.20;;;4.90;;
12348;SDS011;5974;42.710;27.258;2024-01-30T12:43:35;6.63;;;4.83;;
12348;SDS011;5974;42.710;27.258;2024-01-30T12:46:02;7.13;;;4.73;;
12348;SDS011;5974;42.710;27.258;2024-01-30T12:48:29;5.53;;;4.67;;
12348;SDS011;5974;42.710;27.258;2024-01-30T12:50:56;6.50;;;4.33;;
12348;SDS011;5974;42.710;27.258;2024-01-30T12:53:24;6.07;;;4.43;;
12348;SDS011;5974;42.710;27.258;2024-01-30T12:55:51;9.17;;;4.93;;
12348;SDS011;5974;42.710;27.258;2024-01-30T12:58:19;6.50;;;4.50;;
12348;SDS011;5974;42.710;27.258;2024-01-30T13:00:46;6.03;;;4.27;;
12348;SDS011;5974;42.710;27.258;2024-01-30T13:03:12;9.13;;;4.30;;
12348;SDS011;5974;42.710;27.258;2024-01-30T13:05:39;5.93;;;4.57;;
12348;SDS011;5974;42.710;27.258;2024-01-30T13:08:06;6.37;;;4.30;;
12348;SDS011;5974;42.710;27.258;2024-01-30T13:10:34;5.90;;;4.47;;
12348;SDS011;5974;42.710;27.258;2024-01-30T13:13:01;5.20;;;4.00;;
12348;SDS011;5974;42.710;27.258;2024-01-30T13:15:27;4.33;;;3.93;;
12348;SDS011;5974;42.710;27.258;2024-01-30T13:17:54;5.33;;;4.23;;
12348;SDS011;5974;42.710;27.258;2024-01-30T13:20:21;5.43;;;4.00;;
12348;SDS011;5974;42.710;27.258;2024-01-30T13:22:48;5.83;;;4.20;;
12348;SDS011;5974;42.710;27.258;2024-01-30T13:25:15;5.63;;;4.00;;
12348;SDS011;5974;42.710;27.258;2024-01-30T13:27:43;4.83;;;3.93;;
12348;SDS011;5974;42.710;27.258;2024-01-30T13:30:10;5.80;;;4.07;;
12348;SDS011;5974;42.710;27.258;2024-01-30T13:32:37;6.47;;;4.00;;
12348;SDS011;5974;42.710;27.258;2024-01-30T13:35:06;4.70;;;3.77;;
12348;SDS011;5974;42.710;27.258;2024-01-30T13:37:33;6.87;;;3.90;;
12348;SDS011;5974;42.710;27.258;2024-01-30T13:40:00;4.13;;;3.70;;
12348;SDS011;5974;42.710;27.258;2024-01-30T13:42:27;5.30;;;4.10;;
12348;SDS011;5974;42.710;27.258;2024-01-30T13:44:55;4.57;;;4.03;;
12348;SDS011;5974;42.710;27.258;2024-01-30T13:47:22;4.67;;;4.00;;
12348;SDS011;5974;42.710;27.258;2024-01-30T13:49:49;4.63;;;3.90;;
12348;SDS011;5974;42.710;27.258;2024-01-30T13:52:17;5.07;;;4.00;;
12348;SDS011;5974;42.710;27.258;2024-01-30T13:54:44;6.17;;;4.30;;
12348;SDS011;5974;42.710;27.258;2024-01-30T13:57:11;5.30;;;4.03;;
12348;SDS011;5974;42.710;27.258;2024-01-30T13:59:37;5.57;;;3.70;;
12348;SDS011;5974;42.710;27.258;2024-01-30T14:02:06;5.30;;;3.90;;
12348;SDS011;5974;42.710;27.258;2024-01-30T14:04:35;5.23;;;3.53;;
12348;SDS011;5974;42.710;27.258;2024-01-30T14:07:02;5.30;;;3.80;;
12348;SDS011;5974;42.710;27.258;2024-01-30T14:09:29;5.43;;;4.27;;
12348;SDS011;5974;42.710;27.258;2024-01-30T14:11:57;6.60;;;4.33;;
12348;SDS011;5974;42.710;27.258;2024-01-30T14:14:24;5.77;;;3.90;;
12348;SDS011;5974;42.710;27.258;2024-01-30T14:16:51;6.43;;;3.70;;
12348;SDS011;5974;42.710;27.258;2024-01-30T14:19:19;4.87;;;3.87;;
12348;SDS011;5974;42.710;27.258;2024-01-30T14:21:46;5.10;;;3.80;;
12348;SDS011;5974;42.710;27.258;2024-01-30T14:24:12;4.93;;;3.90;;
12348;SDS011;5974;42.710;27.258;2024-01-30T14:26:39;6.63;;;3.63;;
12348;SDS011;5974;42.710;27.258;2024-01-30T14:29:06;7.07;;;3.80;;
12348;SDS011;5974;42.710;27.258;2024-01-30T14:31:33;5.30;;;4.10;;
12348;SDS011;5974;42.710;27.258;2024-01-30T14:33:59;5.00;;;3.97;;
12348;SDS011;5974;42.710;27.258;2024-01-30T14:36:27;6.70;;;4.57;;
12348;SDS011;5974;42.710;27.258;2024-01-30T14:38:54;5.40;;;4.43;;
12348;SDS011;5974;42.710;27.258;2024-01-30T14:41:21;7.67;;;4.37;;
12348;SDS011;5974;42.710;27.258;2024-01-30T14:43:48;7.13;;;5.70;;